createdAt,value
2017-09-23T00:00:16.131Z,8.86
2017-09-23T00:01:16.466Z,8.91
2017-09-23T00:02:16.495Z,8.91
2017-09-23T00:03:16.826Z,8.84
2017-09-23T00:04:16.850Z,8.94
2017-09-23T00:05:16.600Z,8.89
2017-09-23T00:06:31.484Z,8.84
2017-09-23T00:07:16.910Z,8.87
2017-09-23T00:08:16.926Z,8.89
2017-09-23T00:09:16.629Z,8.91
2017-09-23T00:10:16.972Z,8.83
2017-09-23T00:11:16.992Z,8.92
2017-09-23T00:12:16.688Z,8.96
2017-09-23T00:13:17.032Z,9.02
2017-09-23T00:14:17.049Z,8.99
2017-09-23T00:15:16.749Z,8.95
2017-09-23T00:16:17.087Z,8.89
2017-09-23T00:17:17.103Z,8.79
2017-09-23T00:18:17.129Z,8.68
2017-09-23T00:19:17.148Z,8.68
2017-09-23T00:20:16.848Z,8.71
2017-09-23T00:21:31.782Z,8.7
2017-09-23T00:22:31.800Z,8.73
2017-09-23T00:23:17.234Z,8.7
2017-09-23T00:24:17.250Z,8.74
2017-09-23T00:25:16.948Z,8.71
2017-09-23T00:26:16.972Z,8.63
2017-09-23T00:27:17.312Z,8.61
2017-09-23T00:28:17.010Z,8.56
2017-09-23T00:29:17.348Z,8.53
2017-09-23T00:30:17.054Z,8.68
2017-09-23T00:31:17.394Z,8.59
2017-09-23T00:32:17.405Z,8.66
2017-09-23T00:33:17.110Z,8.73
2017-09-23T00:34:17.450Z,8.71
2017-09-23T00:35:17.467Z,8.65
2017-09-23T00:36:17.170Z,8.73
2017-09-23T00:37:32.102Z,8.83
2017-09-23T00:38:17.209Z,8.83
2017-09-23T00:39:17.227Z,8.71
2017-09-23T00:40:17.570Z,8.71
2017-09-23T00:41:17.267Z,8.7
2017-09-23T00:42:17.291Z,8.65
2017-09-23T00:43:17.627Z,8.52
2017-09-23T00:44:17.677Z,8.55
2017-09-23T00:45:17.667Z,8.48
2017-09-23T00:47:17.708Z,8.52
2017-09-23T00:48:17.725Z,8.48
2017-09-23T00:49:17.750Z,8.56
2017-09-23T00:50:17.768Z,8.47
2017-09-23T00:51:17.785Z,8.47
2017-09-23T00:52:17.490Z,8.48
2017-09-23T00:53:32.417Z,8.44
2017-09-23T00:54:17.854Z,8.44
2017-09-23T00:55:17.865Z,8.41
2017-09-23T00:56:32.475Z,8.5
2017-09-23T00:57:17.905Z,8.47
2017-09-23T00:58:17.924Z,8.55
2017-09-23T00:59:17.948Z,8.5
2017-09-23T01:00:17.645Z,8.56
2017-09-23T01:01:17.994Z,8.58
2017-09-23T01:02:18.006Z,8.52
2017-09-23T01:03:18.026Z,8.53
2017-09-23T01:04:18.047Z,8.45
2017-09-23T01:05:18.064Z,8.44
2017-09-23T01:06:17.768Z,8.43
2017-09-23T01:07:18.099Z,8.44
2017-09-23T01:08:18.119Z,8.41
2017-09-23T01:09:32.731Z,8.29
2017-09-23T01:10:17.842Z,8.4
2017-09-23T01:11:32.455Z,8.33
2017-09-23T01:12:17.882Z,8.28
2017-09-23T01:13:17.900Z,8.25
2017-09-23T01:14:17.922Z,8.23
2017-09-23T01:15:18.258Z,8.29
2017-09-23T01:16:17.641Z,8.29
2017-09-23T01:17:17.983Z,8.19
2017-09-23T01:18:18.000Z,8.25
2017-09-23T01:19:18.341Z,8.2
2017-09-23T01:20:18.037Z,8.23
2017-09-23T01:21:18.385Z,8.28
2017-09-23T01:22:18.398Z,8.38
2017-09-23T01:23:18.415Z,8.4
2017-09-23T01:24:18.119Z,8.37
2017-09-23T01:25:33.045Z,8.4
2017-09-23T01:26:18.476Z,8.25
2017-09-23T01:27:32.769Z,8.19
2017-09-23T01:28:33.108Z,8.18
2017-09-23T01:29:18.219Z,8.2
2017-09-23T01:30:18.560Z,8.1
2017-09-23T01:31:18.572Z,8.19
2017-09-23T01:32:18.590Z,8.16
2017-09-23T01:33:18.664Z,8.16
2017-09-23T01:34:18.630Z,8.19
2017-09-23T01:35:18.656Z,8.2
2017-09-23T01:36:18.676Z,8.12
2017-09-23T01:37:18.695Z,8.15
2017-09-23T01:38:18.725Z,8.22
2017-09-23T01:39:18.413Z,8.2
2017-09-23T01:40:18.748Z,8.28
2017-09-23T01:41:33.362Z,8.25
2017-09-23T01:42:18.785Z,8.15
2017-09-23T01:43:18.809Z,8.26
2017-09-23T01:44:18.507Z,8.2
2017-09-23T01:45:33.440Z,8.25
2017-09-23T01:47:18.250Z,8.2
2017-09-23T01:49:18.606Z,8.23
2017-09-23T01:50:18.945Z,8.29
2017-09-23T01:51:18.645Z,8.26
2017-09-23T01:52:18.665Z,8.28
2017-09-23T01:53:19.000Z,8.19
2017-09-23T01:54:19.025Z,8.22
2017-09-23T01:55:19.045Z,8.18
2017-09-23T01:56:33.652Z,8.05
2017-09-23T01:57:18.766Z,8.07
2017-09-23T01:58:19.103Z,8.04
2017-09-23T01:59:19.121Z,8.01
2017-09-23T02:00:18.823Z,7.9
2017-09-23T02:01:18.850Z,7.87
2017-09-23T02:02:19.180Z,7.92
2017-09-23T02:04:19.216Z,7.92
2017-09-23T02:05:19.236Z,7.92
2017-09-23T02:06:19.257Z,8.02
2017-09-23T02:07:19.273Z,8.01
2017-09-23T02:08:19.297Z,8.1
2017-09-23T02:09:19.314Z,8.05
2017-09-23T02:10:19.335Z,8
2017-09-23T02:11:19.357Z,7.95
2017-09-23T02:12:19.056Z,8.01
2017-09-23T02:13:19.404Z,8.04
2017-09-23T02:14:19.116Z,8.04
2017-09-23T02:15:19.432Z,7.98
2017-09-23T02:16:34.043Z,8.04
2017-09-23T02:17:34.060Z,8.02
2017-09-23T02:18:19.493Z,7.97
2017-09-23T02:19:19.510Z,8
2017-09-23T02:20:19.526Z,8.08
2017-09-23T02:21:19.551Z,7.95
2017-09-23T02:23:19.585Z,8.02
2017-09-23T02:24:19.607Z,8.01
2017-09-23T02:25:19.627Z,7.93
2017-09-23T02:26:19.653Z,7.82
2017-09-23T02:27:19.661Z,7.86
2017-09-23T02:28:34.274Z,7.85
2017-09-23T02:29:19.388Z,7.75
2017-09-23T02:30:19.727Z,7.89
2017-09-23T02:31:19.757Z,7.85
2017-09-23T02:32:19.765Z,7.86
2017-09-23T02:33:19.780Z,7.82
2017-09-23T02:34:19.802Z,7.79
2017-09-23T02:35:19.502Z,7.74
2017-09-23T02:36:19.839Z,7.79
2017-09-23T02:37:19.879Z,7.83
2017-09-23T02:38:19.877Z,7.79
2017-09-23T02:39:19.898Z,7.86
2017-09-23T02:40:19.611Z,7.93
2017-09-23T02:41:19.950Z,7.89
2017-09-23T02:42:19.954Z,7.87
2017-09-23T02:43:19.977Z,7.85
2017-09-23T02:44:34.585Z,7.85
2017-09-23T02:45:20.011Z,7.86
2017-09-23T02:47:20.047Z,7.8
2017-09-23T02:48:20.072Z,7.83
2017-09-23T02:49:19.773Z,7.87
2017-09-23T02:50:20.111Z,7.67
2017-09-23T02:51:20.136Z,7.58
2017-09-23T02:52:20.149Z,7.64
2017-09-23T02:53:20.170Z,7.58
2017-09-23T02:54:20.189Z,7.53
2017-09-23T02:55:20.210Z,7.67
2017-09-23T02:56:20.224Z,7.69
2017-09-23T02:57:20.241Z,7.69
2017-09-23T02:58:20.265Z,7.58
2017-09-23T02:59:20.284Z,7.6
2017-09-23T03:00:34.895Z,7.64
2017-09-23T03:01:20.326Z,7.58
2017-09-23T03:02:20.343Z,7.57
2017-09-23T03:03:34.952Z,7.61
2017-09-23T03:04:20.378Z,7.55
2017-09-23T03:05:20.130Z,7.52
2017-09-23T03:06:20.419Z,7.53
2017-09-23T03:07:20.116Z,7.46
2017-09-23T03:08:20.137Z,7.5
2017-09-23T03:09:20.524Z,7.49
2017-09-23T03:10:20.495Z,7.67
2017-09-23T03:11:20.510Z,7.63
2017-09-23T03:12:20.217Z,7.64
2017-09-23T03:13:20.551Z,7.64
2017-09-23T03:14:20.253Z,7.49
2017-09-23T03:15:20.268Z,7.57
2017-09-23T03:16:34.881Z,7.53
2017-09-23T03:17:20.627Z,7.6
2017-09-23T03:18:20.644Z,7.63
2017-09-23T03:19:20.665Z,7.61
2017-09-23T03:20:20.738Z,7.57
2017-09-23T03:22:20.734Z,7.63
2017-09-23T03:23:20.744Z,7.53
2017-09-23T03:24:20.763Z,7.74
2017-09-23T03:25:20.779Z,7.58
2017-09-23T03:26:20.800Z,7.5
2017-09-23T03:27:20.819Z,7.71
2017-09-23T03:28:20.847Z,7.57
2017-09-23T03:29:20.538Z,7.55
2017-09-23T03:30:20.882Z,7.52
2017-09-23T03:31:35.487Z,7.46
2017-09-23T03:32:20.915Z,7.4
2017-09-23T03:33:20.615Z,7.4
2017-09-23T03:34:20.955Z,7.45
2017-09-23T03:35:35.563Z,7.37
2017-09-23T03:36:20.992Z,7.4
2017-09-23T03:37:21.008Z,7.35
2017-09-23T03:38:21.028Z,7.25
2017-09-23T03:39:20.738Z,7.35
2017-09-23T03:40:21.069Z,7.35
2017-09-23T03:41:21.091Z,7.32
2017-09-23T03:42:21.162Z,7.35
2017-09-23T03:43:21.125Z,7.28
2017-09-23T03:44:21.143Z,7.39
2017-09-23T03:45:21.163Z,7.37
2017-09-23T03:46:20.863Z,7.34
2017-09-23T03:47:21.201Z,7.4
2017-09-23T03:48:21.220Z,7.4
2017-09-23T03:49:21.239Z,7.32
2017-09-23T03:50:21.260Z,7.42
2017-09-23T03:51:21.274Z,7.39
2017-09-23T03:52:20.977Z,7.35
2017-09-23T03:53:21.318Z,7.35
2017-09-23T03:54:20.698Z,7.24
2017-09-23T03:55:21.037Z,7.28
2017-09-23T03:56:21.374Z,7.28
2017-09-23T03:57:21.396Z,7.24
2017-09-23T03:58:21.410Z,7.28
2017-09-23T03:59:21.430Z,7.25
2017-09-23T04:00:21.449Z,7.27
2017-09-23T04:01:21.468Z,7.25
2017-09-23T04:02:21.486Z,7.37
2017-09-23T04:03:35.778Z,7.34
2017-09-23T04:04:21.216Z,7.32
2017-09-23T04:05:21.548Z,7.34
2017-09-23T04:06:21.561Z,7.34
2017-09-23T04:07:21.578Z,7.37
2017-09-23T04:08:21.284Z,7.34
2017-09-23T04:09:21.620Z,7.37
2017-09-23T04:10:21.641Z,7.27
2017-09-23T04:11:21.338Z,7.3
2017-09-23T04:12:21.673Z,7.3
2017-09-23T04:13:21.700Z,7.27
2017-09-23T04:14:21.720Z,7.25
2017-09-23T04:15:21.730Z,7.25
2017-09-23T04:16:21.751Z,7.25
2017-09-23T04:17:21.773Z,7.37
2017-09-23T04:18:21.794Z,7.42
2017-09-23T04:19:36.399Z,7.23
2017-09-23T04:20:21.830Z,7.39
2017-09-23T04:21:21.845Z,7.24
2017-09-23T04:22:21.863Z,7.24
2017-09-23T04:23:21.250Z,7.24
2017-09-23T04:24:21.904Z,7.35
2017-09-23T04:25:21.921Z,7.25
2017-09-23T04:26:21.950Z,7.28
2017-09-23T04:27:21.957Z,7.23
2017-09-23T04:28:21.660Z,7.25
2017-09-23T04:29:22.002Z,7.32
2017-09-23T04:30:21.698Z,7.35
2017-09-23T04:31:36.636Z,7.39
2017-09-23T04:32:22.055Z,7.35
2017-09-23T04:33:21.767Z,7.39
2017-09-23T04:34:22.094Z,7.32
2017-09-23T04:35:36.704Z,7.35
2017-09-23T04:36:22.130Z,7.35
2017-09-23T04:37:22.149Z,7.4
2017-09-23T04:38:21.850Z,7.31
2017-09-23T04:39:36.778Z,7.31
2017-09-23T04:40:22.205Z,7.39
2017-09-23T04:41:22.234Z,7.35
2017-09-23T04:43:22.265Z,7.35
2017-09-23T04:44:22.283Z,7.42
2017-09-23T04:45:22.308Z,7.39
2017-09-23T04:46:22.333Z,7.34
2017-09-23T04:47:22.021Z,7.48
2017-09-23T04:48:36.957Z,7.46
2017-09-23T04:49:22.378Z,7.57
2017-09-23T04:50:22.394Z,7.55
2017-09-23T04:51:37.010Z,7.57
2017-09-23T04:52:22.435Z,7.67
2017-09-23T04:53:22.454Z,7.64
2017-09-23T04:54:22.475Z,7.64
2017-09-23T04:55:22.490Z,7.61
2017-09-23T04:56:22.509Z,7.63
2017-09-23T04:58:22.545Z,7.64
2017-09-23T04:59:22.568Z,7.6
2017-09-23T05:00:22.588Z,7.67
2017-09-23T05:01:22.608Z,7.55
2017-09-23T05:02:22.307Z,7.68
2017-09-23T05:03:22.644Z,7.69
2017-09-23T05:04:22.659Z,7.71
2017-09-23T05:05:22.680Z,7.71
2017-09-23T05:06:37.297Z,7.63
2017-09-23T05:07:22.720Z,7.55
2017-09-23T05:08:22.738Z,7.64
2017-09-23T05:09:22.756Z,7.55
2017-09-23T05:10:37.416Z,7.68
2017-09-23T05:11:22.798Z,7.6
2017-09-23T05:12:22.816Z,7.6
2017-09-23T05:13:22.835Z,7.6
2017-09-23T05:14:22.856Z,7.57
2017-09-23T05:15:22.868Z,7.57
2017-09-23T05:16:22.573Z,7.58
2017-09-23T05:17:22.911Z,7.64
2017-09-23T05:18:22.934Z,7.64
2017-09-23T05:19:22.957Z,7.48
2017-09-23T05:20:22.649Z,7.5
2017-09-23T05:21:22.983Z,7.52
2017-09-23T05:22:22.368Z,7.5
2017-09-23T05:23:23.028Z,7.52
2017-09-23T05:24:23.042Z,7.53
2017-09-23T05:25:37.651Z,7.46
2017-09-23T05:26:37.671Z,7.48
2017-09-23T05:27:22.779Z,7.55
2017-09-23T05:28:23.116Z,7.49
2017-09-23T05:29:22.820Z,7.5
2017-09-23T05:30:23.154Z,7.55
2017-09-23T05:31:22.854Z,7.55
2017-09-23T05:32:23.196Z,7.55
2017-09-23T05:33:22.895Z,7.57
2017-09-23T05:34:23.231Z,7.55
2017-09-23T05:35:23.251Z,7.6
2017-09-23T05:36:23.273Z,7.58
2017-09-23T05:37:23.288Z,7.53
2017-09-23T05:38:37.912Z,7.6
2017-09-23T05:39:23.330Z,7.58
2017-09-23T05:40:23.026Z,7.69
2017-09-23T05:42:37.975Z,7.58
2017-09-23T05:43:23.089Z,7.71
2017-09-23T05:44:23.423Z,7.79
2017-09-23T05:45:23.445Z,7.63
2017-09-23T05:46:23.462Z,7.86
2017-09-23T05:47:23.481Z,7.87
2017-09-23T05:48:23.502Z,7.85
2017-09-23T05:49:23.524Z,7.71
2017-09-23T05:50:23.544Z,7.89
2017-09-23T05:51:23.240Z,7.87
2017-09-23T05:52:23.571Z,7.86
2017-09-23T05:53:23.304Z,7.86
2017-09-23T05:54:37.887Z,7.83
2017-09-23T05:55:23.318Z,7.86
2017-09-23T05:56:23.651Z,7.95
2017-09-23T05:58:38.333Z,7.98
2017-09-23T05:59:23.711Z,7.86
2017-09-23T06:00:23.729Z,7.98
2017-09-23T06:01:23.754Z,8.02
2017-09-23T06:02:23.772Z,7.98
2017-09-23T06:03:23.497Z,8.05
2017-09-23T06:04:23.817Z,8.08
2017-09-23T06:05:23.521Z,8.11
2017-09-23T06:06:23.850Z,8.12
2017-09-23T06:07:23.868Z,8.25
2017-09-23T06:08:23.565Z,8.43
2017-09-23T06:09:23.910Z,8.48
2017-09-23T06:10:38.520Z,8.76
2017-09-23T06:11:38.542Z,8.96
2017-09-23T06:12:23.966Z,9.21
2017-09-23T06:13:23.991Z,9.38
2017-09-23T06:14:38.600Z,9.61
2017-09-23T06:15:24.033Z,9.71
2017-09-23T06:16:24.053Z,10.02
2017-09-23T06:17:23.760Z,10.27
2017-09-23T06:18:23.777Z,10.33
2017-09-23T06:19:24.123Z,10.47
2017-09-23T06:20:24.148Z,10.73
2017-09-23T06:21:24.168Z,10.94
2017-09-23T06:22:23.873Z,11.17
2017-09-23T06:23:23.902Z,11.27
2017-09-23T06:24:23.921Z,11.28
2017-09-23T06:25:23.947Z,11.32
2017-09-23T06:26:38.882Z,11.33
2017-09-23T06:27:24.317Z,11.35
2017-09-23T06:29:24.045Z,11.44
2017-09-23T06:30:24.065Z,11.52
2017-09-23T06:31:24.408Z,11.72
2017-09-23T06:32:24.433Z,11.85
2017-09-23T06:34:23.850Z,12.02
2017-09-23T06:35:24.513Z,12.35
2017-09-23T06:36:24.534Z,12.5
2017-09-23T06:37:24.584Z,12.67
2017-09-23T06:38:23.953Z,12.83
2017-09-23T06:39:24.614Z,13.1
2017-09-23T06:40:24.644Z,13.19
2017-09-23T06:41:38.943Z,13.51
2017-09-23T06:42:24.696Z,13.67
2017-09-23T06:43:24.405Z,13.69
2017-09-23T06:44:24.436Z,13.64
2017-09-23T06:45:24.776Z,13.62
2017-09-23T06:46:24.811Z,13.62
2017-09-23T06:47:24.512Z,13.78
2017-09-23T06:48:39.447Z,13.91
2017-09-23T06:49:24.884Z,13.97
2017-09-23T06:50:24.593Z,14.14
2017-09-23T06:52:24.651Z,14.18
2017-09-23T06:53:24.996Z,14.17
2017-09-23T06:54:24.709Z,14.24
2017-09-23T06:55:25.054Z,14.29
2017-09-23T06:56:24.764Z,14.51
2017-09-23T06:57:25.108Z,14.68
2017-09-23T06:58:25.143Z,14.84
2017-09-23T07:00:24.876Z,15.11
2017-09-23T07:01:39.810Z,15.27
2017-09-23T07:02:25.249Z,15.21
2017-09-23T07:03:24.956Z,15.36
2017-09-23T07:04:24.988Z,15.29
2017-09-23T07:05:25.334Z,15.46
2017-09-23T07:06:25.364Z,15.59
2017-09-23T07:07:25.395Z,15.68
2017-09-23T07:08:25.423Z,15.71
2017-09-23T07:09:25.495Z,15.78
2017-09-23T07:10:25.477Z,15.76
2017-09-23T07:11:25.503Z,15.76
2017-09-23T07:12:25.531Z,15.72
2017-09-23T07:13:39.832Z,15.76
2017-09-23T07:14:25.588Z,15.86
2017-09-23T07:15:25.299Z,15.86
2017-09-23T07:16:25.643Z,15.68
2017-09-23T07:17:40.261Z,15.76
2017-09-23T07:19:25.721Z,15.69
2017-09-23T07:20:25.749Z,15.74
2017-09-23T07:21:25.831Z,15.59
2017-09-23T07:22:25.806Z,15.56
2017-09-23T07:23:25.829Z,15.56
2017-09-23T07:24:25.221Z,15.51
2017-09-23T07:25:25.890Z,15.32
2017-09-23T07:26:25.912Z,15.29
2017-09-23T07:27:25.936Z,15.32
2017-09-23T07:28:25.645Z,15.23
2017-09-23T07:29:40.581Z,15.19
2017-09-23T07:31:40.314Z,15.11
2017-09-23T07:32:26.067Z,15.06
2017-09-23T07:33:26.090Z,14.99
2017-09-23T07:34:26.114Z,15.02
2017-09-23T07:35:26.139Z,15.11
2017-09-23T07:36:40.756Z,15.21
2017-09-23T07:37:26.192Z,15.25
2017-09-23T07:38:26.216Z,15.32
2017-09-23T07:39:26.241Z,15.46
2017-09-23T07:40:26.268Z,15.31
2017-09-23T07:41:26.295Z,15.29
2017-09-23T07:42:26.000Z,15.31
2017-09-23T07:43:26.346Z,15.23
2017-09-23T07:44:26.366Z,15.03
2017-09-23T07:45:40.985Z,15.03
2017-09-23T07:46:26.419Z,15.1
2017-09-23T07:47:26.443Z,15.28
2017-09-23T07:48:26.468Z,15.28
2017-09-23T07:49:26.505Z,15.11
2017-09-23T07:50:26.197Z,15.17
2017-09-23T07:51:26.225Z,15.11
2017-09-23T07:52:26.565Z,15.01
2017-09-23T07:53:26.586Z,14.75
2017-09-23T07:54:26.615Z,14.84
2017-09-23T07:55:26.322Z,14.75
2017-09-23T07:56:26.663Z,14.77
2017-09-23T07:57:26.691Z,14.62
2017-09-23T07:58:26.391Z,14.72
2017-09-23T07:59:26.738Z,14.81
2017-09-23T08:00:26.760Z,14.8
2017-09-23T08:01:41.060Z,14.62
2017-09-23T08:02:26.810Z,14.72
2017-09-23T08:03:26.835Z,14.73
2017-09-23T08:04:26.864Z,14.73
2017-09-23T08:05:41.475Z,14.95
2017-09-23T08:06:26.907Z,15.09
2017-09-23T08:07:26.932Z,15.14
2017-09-23T08:08:26.957Z,15.14
2017-09-23T08:09:26.984Z,15.2
2017-09-23T08:10:27.006Z,15.28
2017-09-23T08:11:27.028Z,15.38
2017-09-23T08:12:27.082Z,15.49
2017-09-23T08:13:27.079Z,15.5
2017-09-23T08:14:27.105Z,15.56
2017-09-23T08:15:27.120Z,15.64
2017-09-23T08:16:41.421Z,15.8
2017-09-23T08:17:27.171Z,16.01
2017-09-23T08:18:41.470Z,16.2
2017-09-23T08:19:26.903Z,16.21
2017-09-23T08:20:41.836Z,16.34
2017-09-23T08:21:27.270Z,16.27
2017-09-23T08:22:27.298Z,16.07
2017-09-23T08:23:27.001Z,15.83
2017-09-23T08:24:27.022Z,15.69
2017-09-23T08:26:27.387Z,15.72
2017-09-23T08:27:27.418Z,15.62
2017-09-23T08:28:27.439Z,15.64
2017-09-23T08:29:27.459Z,15.54
2017-09-23T08:30:27.484Z,15.56
2017-09-23T08:31:27.507Z,15.67
2017-09-23T08:32:27.537Z,15.84
2017-09-23T08:33:27.237Z,15.9
2017-09-23T08:34:27.588Z,15.97
2017-09-23T08:35:27.610Z,16.04
2017-09-23T08:36:27.628Z,15.89
2017-09-23T08:37:27.651Z,15.9
2017-09-23T08:38:27.675Z,15.83
2017-09-23T08:39:27.381Z,16.04
2017-09-23T08:40:27.726Z,16.21
2017-09-23T08:41:27.745Z,16.27
2017-09-23T08:42:27.770Z,16.42
2017-09-23T08:43:27.795Z,16.27
2017-09-23T08:44:27.818Z,16.45
2017-09-23T08:45:27.847Z,16.39
2017-09-23T08:46:27.910Z,16.2
2017-09-23T08:47:27.893Z,16.09
2017-09-23T08:48:42.507Z,15.93
2017-09-23T08:49:27.938Z,15.9
2017-09-23T08:50:27.964Z,15.8
2017-09-23T08:51:27.988Z,15.82
2017-09-23T08:53:28.037Z,15.94
2017-09-23T08:54:28.062Z,16.15
2017-09-23T08:55:42.669Z,16.21
2017-09-23T08:57:28.128Z,16.01
2017-09-23T08:58:28.170Z,15.87
2017-09-23T08:59:28.176Z,15.72
2017-09-23T09:00:28.201Z,15.72
2017-09-23T09:01:28.227Z,15.72
2017-09-23T09:02:27.928Z,15.69
2017-09-23T09:03:28.271Z,15.74
2017-09-23T09:04:42.889Z,15.83
2017-09-23T09:05:28.319Z,15.86
2017-09-23T09:06:28.032Z,16.24
2017-09-23T09:07:28.047Z,16.42
2017-09-23T09:08:28.075Z,16.45
2017-09-23T09:11:28.142Z,16.31
2017-09-23T09:12:28.169Z,16.45
2017-09-23T09:13:28.187Z,16.7
2017-09-23T09:14:28.219Z,16.56
2017-09-23T09:15:28.559Z,16.61
2017-09-23T09:16:28.577Z,16.73
2017-09-23T09:17:28.604Z,16.81
2017-09-23T09:18:28.626Z,16.91
2017-09-23T09:19:28.661Z,17
2017-09-23T09:20:43.271Z,17.06
2017-09-23T09:21:28.701Z,17.21
2017-09-23T09:22:43.317Z,17.28
2017-09-23T09:23:28.745Z,17.23
2017-09-23T09:24:43.363Z,17.51
2017-09-23T09:25:43.384Z,17.51
2017-09-23T09:27:28.526Z,17.68
2017-09-23T09:28:28.873Z,17.58
2017-09-23T09:29:28.890Z,17.55
2017-09-23T09:30:28.918Z,17.4
2017-09-23T09:31:28.934Z,17.44
2017-09-23T09:32:28.967Z,17.48
2017-09-23T09:33:28.667Z,17.33
2017-09-23T09:34:28.692Z,17.54
2017-09-23T09:35:28.715Z,17.55
2017-09-23T09:36:43.648Z,17.23
2017-09-23T09:37:28.443Z,17.36
2017-09-23T09:38:29.104Z,17.31
2017-09-23T09:39:43.723Z,17.28
2017-09-23T09:40:28.841Z,17.52
2017-09-23T09:41:29.192Z,17.63
2017-09-23T09:42:29.200Z,17.56
2017-09-23T09:43:29.224Z,17.64
2017-09-23T09:44:29.252Z,17.55
2017-09-23T09:45:28.956Z,17.56
2017-09-23T09:46:29.301Z,17.68
2017-09-23T09:47:29.322Z,17.96
2017-09-23T09:48:29.351Z,18.14
2017-09-23T09:49:29.057Z,18.44
2017-09-23T09:50:29.396Z,18.54
2017-09-23T09:51:44.013Z,18.44
2017-09-23T09:52:29.449Z,18.48
2017-09-23T09:53:43.743Z,18.52
2017-09-23T09:54:29.495Z,18.42
2017-09-23T09:55:29.201Z,18.36
2017-09-23T09:56:29.545Z,18.39
2017-09-23T09:58:29.614Z,17.97
2017-09-23T09:59:29.668Z,18.08
2017-09-23T10:00:29.004Z,18.03
2017-09-23T10:02:29.373Z,17.33
2017-09-23T10:03:29.718Z,17.31
2017-09-23T10:04:29.750Z,17.34
2017-09-23T10:05:29.767Z,17.25
2017-09-23T10:06:29.791Z,17.33
2017-09-23T10:07:29.498Z,17.31
2017-09-23T10:08:29.840Z,17.3
2017-09-23T10:09:29.861Z,17.18
2017-09-23T10:11:29.592Z,17.52
2017-09-23T10:12:29.947Z,17.93
2017-09-23T10:13:29.968Z,18.12
2017-09-23T10:14:29.986Z,18.3
2017-09-23T10:15:30.014Z,18.11
2017-09-23T10:17:30.068Z,18.1
2017-09-23T10:18:30.087Z,18.07
2017-09-23T10:19:30.114Z,17.92
2017-09-23T10:20:30.136Z,17.81
2017-09-23T10:21:30.162Z,17.63
2017-09-23T10:22:30.184Z,17.54
2017-09-23T10:24:44.829Z,17.54
2017-09-23T10:25:29.955Z,17.55
2017-09-23T10:26:44.875Z,17.52
2017-09-23T10:27:30.012Z,17.55
2017-09-23T10:28:30.013Z,17.7
2017-09-23T10:29:30.040Z,17.74
2017-09-23T10:30:30.064Z,17.99
2017-09-23T10:31:30.407Z,18.08
2017-09-23T10:32:30.435Z,18.18
2017-09-23T10:33:30.465Z,18.3
2017-09-23T10:34:30.478Z,18.33
2017-09-23T10:35:30.504Z,18.44
2017-09-23T10:36:30.219Z,18.42
2017-09-23T10:37:30.233Z,18.48
2017-09-23T10:38:30.579Z,18.32
2017-09-23T10:39:45.193Z,18.37
2017-09-23T10:40:29.992Z,18.41
2017-09-23T10:41:44.925Z,18.57
2017-09-23T10:42:30.676Z,18.6
2017-09-23T10:43:30.064Z,18.63
2017-09-23T10:45:30.430Z,18.18
2017-09-23T10:46:30.778Z,17.84
2017-09-23T10:47:30.481Z,17.59
2017-09-23T10:48:30.824Z,17.51
2017-09-23T10:49:30.854Z,17.56
2017-09-23T10:50:30.554Z,17.63
2017-09-23T10:51:30.897Z,17.56
2017-09-23T10:52:30.924Z,17.7
2017-09-23T10:53:30.948Z,17.87
2017-09-23T10:54:30.968Z,18.12
2017-09-23T10:55:45.585Z,18.35
2017-09-23T10:56:45.612Z,18.58
2017-09-23T10:57:31.042Z,18.48
2017-09-23T10:58:31.068Z,18.67
2017-09-23T10:59:30.775Z,18.66
2017-09-23T11:00:31.112Z,18.85
2017-09-23T11:01:31.149Z,18.92
2017-09-23T11:02:30.844Z,18.99
2017-09-23T11:03:31.197Z,19.02
2017-09-23T11:04:31.214Z,19.04
2017-09-23T11:05:31.235Z,19.07
2017-09-23T11:06:31.265Z,19.06
2017-09-23T11:07:30.969Z,19.08
2017-09-23T11:08:31.313Z,19.14
2017-09-23T11:09:31.340Z,19.08
2017-09-23T11:10:31.357Z,18.9
2017-09-23T11:11:45.977Z,18.35
2017-09-23T11:12:31.088Z,17.87
2017-09-23T11:13:31.441Z,17.51
2017-09-23T11:14:31.460Z,17.41
2017-09-23T11:15:31.164Z,17.59
2017-09-23T11:16:31.188Z,18
2017-09-23T11:17:31.209Z,18.2
2017-09-23T11:18:31.557Z,18.48
2017-09-23T11:19:31.584Z,18.63
2017-09-23T11:20:31.604Z,18.73
2017-09-23T11:21:31.632Z,18.76
2017-09-23T11:22:31.653Z,18.36
2017-09-23T11:23:31.676Z,18.41
2017-09-23T11:24:31.386Z,18.35
2017-09-23T11:25:31.734Z,18.32
2017-09-23T11:26:46.345Z,18.42
2017-09-23T11:27:31.803Z,18.32
2017-09-23T11:28:31.805Z,18.45
2017-09-23T11:29:46.416Z,18.58
2017-09-23T11:30:31.846Z,18.47
2017-09-23T11:31:31.555Z,18.48
2017-09-23T11:32:31.939Z,18.6
2017-09-23T11:33:31.922Z,18.72
2017-09-23T11:34:31.630Z,18.51
2017-09-23T11:35:31.975Z,18.63
2017-09-23T11:37:31.702Z,18.92
2017-09-23T11:38:31.726Z,19
2017-09-23T11:39:31.754Z,19.06
2017-09-23T11:40:32.097Z,19.06
2017-09-23T11:41:32.118Z,19.16
2017-09-23T11:42:32.193Z,19.08
2017-09-23T11:43:32.164Z,19.07
2017-09-23T11:44:31.873Z,19.02
2017-09-23T11:45:46.809Z,19.16
2017-09-23T11:46:32.239Z,19.18
2017-09-23T11:47:31.949Z,19.04
2017-09-23T11:48:46.879Z,18.88
2017-09-23T11:49:31.995Z,19.04
2017-09-23T11:50:32.021Z,19.06
2017-09-23T11:51:32.363Z,19.11
2017-09-23T11:52:32.387Z,19.11
2017-09-23T11:53:32.096Z,19.06
2017-09-23T11:54:32.119Z,19.07
2017-09-23T11:55:31.824Z,18.87
2017-09-23T11:56:32.486Z,18.67
2017-09-23T11:57:32.514Z,18.54
2017-09-23T11:58:47.134Z,18.36
2017-09-23T11:59:32.611Z,18.41
2017-09-23T12:00:32.263Z,18.15
2017-09-23T12:01:32.288Z,18.1
2017-09-23T12:03:32.663Z,18.07
2017-09-23T12:05:32.386Z,18.07
2017-09-23T12:06:32.414Z,18.08
2017-09-23T12:07:32.755Z,17.97
2017-09-23T12:08:32.774Z,17.75
2017-09-23T12:09:32.799Z,17.7
2017-09-23T12:10:32.508Z,17.74
2017-09-23T12:11:32.854Z,17.77
2017-09-23T12:12:32.876Z,17.77
2017-09-23T12:13:47.496Z,17.58
2017-09-23T12:14:47.516Z,17.38
2017-09-23T12:15:32.311Z,17.4
2017-09-23T12:16:32.973Z,17.52
2017-09-23T12:17:33.004Z,17.28
2017-09-23T12:18:33.019Z,17.23
2017-09-23T12:19:32.727Z,16.98
2017-09-23T12:20:33.063Z,16.89
2017-09-23T12:23:33.141Z,17.28
2017-09-23T12:24:33.161Z,17.18
2017-09-23T12:25:32.869Z,17.3
2017-09-23T12:26:33.214Z,17.34
2017-09-23T12:27:33.233Z,17.38
2017-09-23T12:28:32.941Z,17.64
2017-09-23T12:29:33.284Z,17.68
2017-09-23T12:30:47.898Z,17.77
2017-09-23T12:31:33.327Z,17.72
2017-09-23T12:33:33.379Z,17.58
2017-09-23T12:34:33.080Z,17.71
2017-09-23T12:35:33.425Z,17.68
2017-09-23T12:36:33.449Z,17.62
2017-09-23T12:37:33.209Z,17.55
2017-09-23T12:38:33.500Z,17.54
2017-09-23T12:39:33.522Z,17.41
2017-09-23T12:40:33.551Z,17.41
2017-09-23T12:41:33.252Z,17.52
2017-09-23T12:42:33.596Z,17.44
2017-09-23T12:43:33.616Z,17.68
2017-09-23T12:44:33.641Z,17.51
2017-09-23T12:45:33.357Z,17.38
2017-09-23T12:46:48.284Z,17.64
2017-09-23T12:48:48.010Z,17.86
2017-09-23T12:49:33.760Z,17.72
2017-09-23T12:50:48.376Z,17.89
2017-09-23T12:51:33.809Z,17.82
2017-09-23T12:52:33.834Z,17.81
2017-09-23T12:53:33.856Z,17.77
2017-09-23T12:54:33.882Z,17.78
2017-09-23T12:55:33.647Z,17.78
2017-09-23T12:56:33.611Z,17.86
2017-09-23T12:57:33.633Z,17.93
2017-09-23T12:58:33.975Z,18.05
2017-09-23T12:59:34.000Z,18.07
2017-09-23T13:00:33.704Z,18.08
2017-09-23T13:01:48.645Z,17.92
2017-09-23T13:02:33.753Z,17.84
2017-09-23T13:03:48.370Z,17.92
2017-09-23T13:04:48.712Z,17.97
2017-09-23T13:05:34.149Z,17.89
2017-09-23T13:06:33.854Z,17.87
2017-09-23T13:08:34.215Z,17.52
2017-09-23T13:09:34.240Z,17.7
2017-09-23T13:10:34.264Z,17.77
2017-09-23T13:11:33.651Z,17.84
2017-09-23T13:12:34.309Z,17.75
2017-09-23T13:13:34.337Z,17.77
2017-09-23T13:14:34.365Z,17.87
2017-09-23T13:15:34.381Z,18
2017-09-23T13:16:34.407Z,18.02
2017-09-23T13:17:49.028Z,17.84
2017-09-23T13:18:34.135Z,17.87
2017-09-23T13:19:34.483Z,17.79
2017-09-23T13:20:49.096Z,17.52
2017-09-23T13:21:34.209Z,17.58
2017-09-23T13:22:49.143Z,17.75
2017-09-23T13:23:34.575Z,17.81
2017-09-23T13:24:34.601Z,17.89
2017-09-23T13:25:34.627Z,17.84
2017-09-23T13:26:34.650Z,17.68
2017-09-23T13:27:34.035Z,17.7
2017-09-23T13:28:34.707Z,17.55
2017-09-23T13:29:34.722Z,17.43
2017-09-23T13:30:34.743Z,17.58
2017-09-23T13:31:34.770Z,17.56
2017-09-23T13:32:34.792Z,17.62
2017-09-23T13:33:49.412Z,17.79
2017-09-23T13:34:34.837Z,17.75
2017-09-23T13:35:34.864Z,17.82
2017-09-23T13:36:34.249Z,17.75
2017-09-23T13:37:34.909Z,17.62
2017-09-23T13:38:49.526Z,17.74
2017-09-23T13:39:34.642Z,17.71
2017-09-23T13:40:34.989Z,17.79
2017-09-23T13:41:35.017Z,17.79
2017-09-23T13:42:35.038Z,17.92
2017-09-23T13:43:35.059Z,17.99
2017-09-23T13:44:35.084Z,18.02